Time;durP1;ratioP1;P1;durP2;ratioP2;P2;SDS_P1;SDS_P2;PMS_P1;PMS_P2;Temp;Humidity;BMP_temperature;BMP_pressure;BME280_temperature;BME280_humidity;BME280_pressure;Samples;Min_cycle;Max_cycle;Signal;HPM_P1;HPM_P2
2022/12/04 00:02:01;;;;;;;10.88;4.97;;;;;;;-8.00;62.50;103144.50;4831541;29;20034;-81
2022/12/04 00:04:27;;;;;;;12.43;5.40;;;;;;;-8.01;62.18;103137.63;4846796;29;20030;-82
2022/12/04 00:06:54;;;;;;;12.75;5.60;;;;;;;-8.04;62.43;103143.25;4810322;29;20047;-82
2022/12/04 00:09:22;;;;;;;10.00;5.07;;;;;;;-8.38;62.36;103082.69;4828927;29;20038;-83
2022/12/04 00:11:48;;;;;;;12.10;5.10;;;;;;;-8.18;62.17;103095.22;4829637;29;20066;-82
2022/12/04 00:14:14;;;;;;;13.63;5.28;;;;;;;-7.89;62.60;103121.41;4828721;29;20069;-80
2022/12/04 00:16:40;;;;;;;16.05;6.18;;;;;;;-8.06;61.95;103080.59;4813980;29;20408;-82
2022/12/04 00:19:06;;;;;;;11.32;5.30;;;;;;;-7.90;62.22;103109.50;4831981;29;20042;-80
2022/12/04 00:21:33;;;;;;;16.15;6.30;;;;;;;-7.85;62.19;103136.97;4817665;29;20046;-82
2022/12/04 00:24:01;;;;;;;13.18;5.75;;;;;;;-8.03;61.81;103113.81;4800442;29;20103;-82
2022/12/04 00:26:29;;;;;;;13.10;5.53;;;;;;;-8.33;61.02;103080.00;4820786;29;20068;-81
2022/12/04 00:28:57;;;;;;;11.20;5.15;;;;;;;-8.19;62.21;103129.66;4818220;29;20078;-81
2022/12/04 00:31:25;;;;;;;12.50;5.35;;;;;;;-8.18;61.27;103145.75;4825229;29;20054;-82
2022/12/04 00:33:51;;;;;;;13.67;5.63;;;;;;;-8.27;61.61;103132.88;4828735;29;20047;-80
2022/12/04 00:36:22;;;;;;;10.90;4.57;;;;;;;-8.60;61.80;103086.84;4828497;29;20067;-83
2022/12/04 00:38:48;;;;;;;13.18;5.15;;;;;;;-8.60;61.94;103082.66;4795975;29;20065;-82
2022/12/04 00:41:18;;;;;;;12.55;6.35;;;;;;;-8.65;62.20;103094.75;4821770;29;20057;-81
2022/12/04 00:43:47;;;;;;;12.57;5.37;;;;;;;-9.11;61.71;103026.03;4811626;29;20059;-81
2022/12/04 00:46:14;;;;;;;12.93;5.45;;;;;;;-8.69;62.11;103099.22;4808380;29;20054;-80
2022/12/04 00:48:42;;;;;;;15.30;5.30;;;;;;;-8.65;61.90;103127.59;4807482;29;20061;-83
2022/12/04 00:51:12;;;;;;;10.90;4.90;;;;;;;-8.52;62.27;103145.13;4791224;29;20079;-82
2022/12/04 00:53:39;;;;;;;12.70;5.80;;;;;;;-8.83;62.67;103106.03;4805735;29;20066;-83
2022/12/04 00:56:07;;;;;;;13.67;5.90;;;;;;;-8.48;62.41;103154.84;4805908;29;20103;-82
2022/12/04 00:58:33;;;;;;;13.93;6.13;;;;;;;-9.03;61.78;103068.22;4776586;29;20093;-84
2022/12/04 01:01:06;;;;;;;11.77;5.13;;;;;;;-8.79;61.41;103123.38;4807306;29;20055;-82
2022/12/04 01:03:32;;;;;;;12.07;5.55;;;;;;;-8.82;60.83;103114.50;4805583;29;21131;-81
2022/12/04 01:05:59;;;;;;;12.40;5.87;;;;;;;-8.75;61.94;103127.16;4805721;29;20077;-84
2022/12/04 01:08:25;;;;;;;13.53;5.70;;;;;;;-8.87;62.08;103121.50;4805570;29;20057;-82
2022/12/04 01:10:51;;;;;;;16.13;6.00;;;;;;;-8.82;62.00;103145.72;4805678;29;20074;-82
2022/12/04 01:13:17;;;;;;;15.60;6.03;;;;;;;-8.84;62.14;103153.81;4805309;29;20050;-83
2022/12/04 01:15:43;;;;;;;13.53;5.10;;;;;;;-8.84;61.97;103154.72;4807421;29;20142;-83
2022/12/04 01:18:11;;;;;;;12.57;5.20;;;;;;;-8.99;62.00;103114.97;4811367;29;20051;-83
2022/12/04 01:20:37;;;;;;;13.97;5.33;;;;;;;-9.23;62.00;103081.84;4806428;29;20065;-80
2022/12/04 01:23:03;;;;;;;14.40;5.80;;;;;;;-8.84;62.40;103137.03;4826713;29;20042;-83
2022/12/04 01:25:31;;;;;;;13.47;5.67;;;;;;;-8.69;62.26;103155.69;4811350;29;20117;-83
2022/12/04 01:27:57;;;;;;;18.03;6.00;;;;;;;-8.99;61.85;103136.06;4827668;29;20053;-84
2022/12/04 01:30:23;;;;;;;11.93;5.50;;;;;;;-8.86;61.62;103153.63;4811515;29;20579;-79
2022/12/04 01:32:50;;;;;;;14.90;5.63;;;;;;;-9.16;61.38;103141.56;4840083;29;20037;-80
2022/12/04 01:35:16;;;;;;;14.30;5.30;;;;;;;-9.11;62.32;103162.31;4836692;29;20050;-81
2022/12/04 01:37:43;;;;;;;12.67;5.57;;;;;;;-9.31;62.31;103145.59;4826469;29;20049;-80
2022/12/04 01:40:15;;;;;;;13.93;5.10;;;;;;;-9.10;62.26;103172.59;4819928;29;20046;-84
2022/12/04 01:42:40;;;;;;;;;;;;;;;-8.95;62.92;103173.59;4834030;29;20137;-81
2022/12/04 01:45:25;;;;;;;13.67;5.73;;;;;;;-8.87;62.10;103171.13;4814007;29;19974;-83
2022/12/04 01:47:54;;;;;;;14.17;4.93;;;;;;;-9.19;61.93;103125.13;4846090;29;20053;-82
2022/12/04 01:50:21;;;;;;;12.60;4.87;;;;;;;-9.26;61.48;103146.16;4845456;29;20057;-82
2022/12/04 01:52:47;;;;;;;15.07;5.53;;;;;;;-9.44;62.67;103112.88;4817517;29;20045;-82
2022/12/04 01:55:13;;;;;;;13.17;4.80;;;;;;;-9.38;61.71;103128.75;4845781;29;20049;-81
2022/12/04 01:57:39;;;;;;;14.83;5.93;;;;;;;-9.48;61.54;103135.00;4798197;29;20041;-81
2022/12/04 02:00:10;;;;;;;12.67;5.60;;;;;;;-9.31;61.71;103164.84;4832732;29;20145;-82
2022/12/04 02:02:38;;;;;;;15.37;5.33;;;;;;;-9.16;62.27;103170.91;4863298;29;20090;-81
2022/12/04 02:05:08;;;;;;;12.00;5.30;;;;;;;-9.28;62.22;103155.16;4864470;29;20038;-81
2022/12/04 02:07:36;;;;;;;11.50;4.80;;;;;;;-9.14;62.42;103172.03;4839812;29;20049;-82
2022/12/04 02:10:05;;;;;;;13.57;5.00;;;;;;;-9.62;62.39;103065.19;4847639;29;20052;-82
2022/12/04 02:12:43;;;;;;;14.20;4.83;;;;;;;-8.98;61.89;103164.75;4805753;29;20049;-82
2022/12/04 02:15:21;;;;;;;14.03;6.30;;;;;;;-9.65;62.51;103050.56;4823840;29;20053;-81
2022/12/04 02:18:06;;;;;;;12.10;4.97;;;;;;;-8.97;61.91;103164.91;4822224;29;20048;-82
2022/12/04 02:20:33;;;;;;;11.63;4.83;;;;;;;-9.15;61.79;103147.50;4840382;29;20050;-81
2022/12/04 02:22:59;;;;;;;13.63;5.30;;;;;;;-9.05;61.59;103164.69;4836534;29;20141;-80
2022/12/04 02:25:48;;;;;;;14.80;4.63;;;;;;;-9.19;61.64;103170.53;4812909;29;20054;-82
2022/12/04 02:28:26;;;;;;;12.97;5.70;;;;;;;-9.18;61.93;103173.28;4826084;29;20137;-83
2022/12/04 02:30:59;;;;;;;12.30;5.03;;;;;;;-9.21;61.91;103170.34;4844946;29;20054;-80
2022/12/04 02:33:48;;;;;;;14.70;5.27;;;;;;;-9.14;62.14;103170.38;4826483;29;20214;-81
2022/12/04 02:36:25;;;;;;;12.67;5.13;;;;;;;-9.58;61.74;103108.63;4843203;29;20050;-82
2022/12/04 02:39:00;;;;;;;14.37;5.40;;;;;;;-9.30;61.55;103176.75;4848100;29;20065;-81
2022/12/04 02:41:32;;;;;;;13.20;5.33;;;;;;;-9.21;62.13;103170.34;4817257;29;20050;-82
2022/12/04 02:44:26;;;;;;;14.07;5.50;;;;;;;-9.56;62.36;103101.25;4832589;29;20030;-81
2022/12/04 02:47:04;;;;;;;14.37;5.30;;;;;;;-9.10;62.38;103146.47;4829231;29;20049;-80
2022/12/04 02:49:48;;;;;;;14.20;5.30;;;;;;;-8.96;62.18;103175.94;4842927;29;20050;-81
2022/12/04 02:52:19;;;;;;;14.77;5.13;;;;;;;-8.97;62.10;103185.13;4827651;29;20129;-81
2022/12/04 02:54:50;;;;;;;13.15;6.05;;;;;;;-9.30;61.76;103141.44;4826804;29;20054;-79
2022/12/04 02:57:21;;;;;;;12.83;5.13;;;;;;;-9.23;62.12;103146.53;4812689;29;20086;-80
2022/12/04 02:59:50;;;;;;;12.30;5.63;;;;;;;-9.06;61.89;103170.44;4827427;29;20026;-82
2022/12/04 03:02:32;;;;;;;11.07;5.73;;;;;;;-9.02;62.06;103157.50;4829401;29;20133;-79
2022/12/04 03:05:03;;;;;;;14.43;5.90;;;;;;;-8.94;62.05;103154.31;4813814;29;20046;-83
2022/12/04 03:07:37;;;;;;;17.90;5.83;;;;;;;-9.03;60.81;103163.25;4808329;29;20429;-83
2022/12/04 03:10:09;;;;;;;14.40;4.70;;;;;;;-9.18;61.65;103140.47;4836492;29;20114;-81
2022/12/04 03:12:42;;;;;;;11.63;4.70;;;;;;;-9.27;61.18;103131.72;4815752;29;20055;-81
2022/12/04 03:15:16;;;;;;;17.60;5.33;;;;;;;-9.06;61.50;103184.00;4846921;29;20046;-82
2022/12/04 03:17:54;;;;;;;13.40;5.00;;;;;;;-9.33;61.19;103133.47;4815746;29;20113;-80
2022/12/04 03:20:21;;;;;;;10.67;4.70;;;;;;;-9.92;61.13;103068.19;4857822;29;20033;-84
2022/12/04 03:22:53;;;;;;;13.67;5.27;;;;;;;-9.47;60.74;103168.00;4838786;29;20064;-84
2022/12/04 03:25:27;;;;;;;11.47;5.10;;;;;;;-9.26;62.00;103184.91;4854485;29;20097;-83
2022/12/04 03:28:04;;;;;;;17.03;5.23;;;;;;;-9.24;61.54;103188.53;4849164;29;20065;-82
2022/12/04 03:30:42;;;;;;;13.37;5.23;;;;;;;-9.27;61.95;103182.19;4837224;29;20034;-83
2022/12/04 03:33:25;;;;;;;13.87;5.27;;;;;;;-9.51;60.75;103160.75;4831287;29;20045;-82
2022/12/04 03:36:02;;;;;;;11.10;4.73;;;;;;;-9.64;62.01;103132.19;4863983;29;20040;-81
2022/12/04 03:38:57;;;;;;;12.37;4.77;;;;;;;-9.28;61.85;103185.44;4841712;29;20070;-81
2022/12/04 03:41:45;;;;;;;12.17;5.33;;;;;;;-9.50;60.94;103142.38;4821618;29;20050;-80
2022/12/04 03:44:19;;;;;;;12.00;4.93;;;;;;;-9.30;61.34;103191.91;4823095;29;20154;-83
2022/12/04 03:46:52;;;;;;;14.73;5.10;;;;;;;-9.76;61.73;103117.31;4823299;29;20045;-81
2022/12/04 03:49:28;;;;;;;11.77;4.40;;;;;;;-9.31;60.80;103190.09;4849084;29;20042;-83
2022/12/04 03:51:56;;;;;;;12.33;4.63;;;;;;;-9.61;61.56;103143.56;4847881;29;20057;-81
2022/12/04 03:54:39;;;;;;;15.30;4.67;;;;;;;-9.59;61.27;103161.38;4846622;29;20512;-81
2022/12/04 03:57:15;;;;;;;13.47;5.17;;;;;;;-9.68;61.87;103146.94;4799841;29;20045;-82
2022/12/04 03:59:48;;;;;;;14.20;5.60;;;;;;;-9.74;61.61;103136.06;4830455;29;20562;-79
2022/12/04 04:02:19;;;;;;;11.97;5.17;;;;;;;-9.49;61.45;103189.59;4800390;29;20424;-81
2022/12/04 04:04:50;;;;;;;10.35;4.78;;;;;;;-9.89;61.39;103144.22;4848354;29;20041;-83
2022/12/04 04:07:33;;;;;;;13.70;5.53;;;;;;;-9.73;61.48;103173.16;4838584;29;20110;-79
2022/12/04 04:10:09;;;;;;;14.73;5.57;;;;;;;-9.47;61.84;103202.38;4812801;29;20045;-80
2022/12/04 04:12:42;;;;;;;13.13;4.80;;;;;;;-9.73;60.77;103163.09;4829688;29;20046;-82
2022/12/04 04:26:37;;;;;;;17.03;5.13;;;;;;;-9.49;61.46;103196.25;4782399;29;20061;-81
2022/12/04 04:29:03;;;;;;;15.43;5.03;;;;;;;-9.58;61.16;103178.31;4810656;29;20039;-83
2022/12/04 04:31:40;;;;;;;19.17;6.20;;;;;;;-9.51;61.51;103200.22;4826375;29;20465;-82
2022/12/04 04:34:39;;;;;;;13.03;5.00;;;;;;;-9.52;61.13;103181.63;4795382;29;20057;-84
2022/12/04 04:37:24;;;;;;;10.37;4.33;;;;;;;-9.94;60.85;103113.38;4827321;29;20046;-82
2022/12/04 04:40:05;;;;;;;12.80;4.93;;;;;;;-9.35;61.20;103215.63;4813540;29;20110;-83
2022/12/04 04:42:37;;;;;;;16.25;4.70;;;;;;;-9.45;60.85;103191.78;4829452;29;20175;-80
2022/12/04 04:45:19;;;;;;;14.40;5.32;;;;;;;-9.31;60.45;103225.41;4825055;29;20065;-82
2022/12/04 04:47:57;;;;;;;12.30;4.80;;;;;;;-9.31;61.11;103220.38;4830333;29;20094;-81
2022/12/04 04:50:24;;;;;;;17.20;5.33;;;;;;;-9.40;61.04;103225.16;4819076;29;20029;-82
2022/12/04 04:52:55;;;;;;;10.97;5.00;;;;;;;-9.55;61.17;103174.59;4819975;29;20146;-84
2022/12/04 04:55:23;;;;;;;16.83;5.60;;;;;;;-9.37;61.30;103215.47;4813304;29;20144;-82
2022/12/04 04:57:49;;;;;;;10.10;4.87;;;;;;;-9.23;61.34;103225.66;4812357;29;20081;-83
2022/12/04 05:00:18;;;;;;;14.30;5.23;;;;;;;-9.28;61.14;103226.72;4812209;29;20051;-82
2022/12/04 05:02:45;;;;;;;12.97;5.00;;;;;;;-9.39;61.04;103212.75;4828831;29;20121;-80
2022/12/04 05:05:12;;;;;;;11.07;5.00;;;;;;;-9.42;60.53;103219.00;4809849;29;20114;-81
2022/12/04 05:07:39;;;;;;;10.83;4.97;;;;;;;-9.70;60.95;103182.72;4833032;29;20106;-80
2022/12/04 05:10:05;;;;;;;12.43;5.27;;;;;;;-9.70;61.26;103181.13;4826145;29;20110;-81
2022/12/04 05:12:31;;;;;;;16.17;5.53;;;;;;;-10.08;61.29;103110.72;4828330;29;20076;-82
2022/12/04 05:14:58;;;;;;;14.27;5.07;;;;;;;-10.20;61.04;103105.94;4811749;29;20046;-81
2022/12/04 05:17:24;;;;;;;16.13;5.77;;;;;;;-9.64;61.18;103175.06;4827879;29;20081;-82
2022/12/04 05:19:53;;;;;;;12.90;4.97;;;;;;;-9.74;60.85;103196.56;4793257;29;20061;-81
2022/12/04 05:22:34;;;;;;;11.60;5.33;;;;;;;-9.65;61.12;103191.78;4820935;29;20071;-84
2022/12/04 05:25:02;;;;;;;9.95;4.75;;;;;;;-10.58;61.22;103008.78;4813974;29;20520;-82
2022/12/04 05:27:30;;;;;;;11.10;4.57;;;;;;;-9.16;61.48;103234.00;4813950;29;20058;-82
2022/12/04 05:29:57;;;;;;;15.63;4.77;;;;;;;-9.32;61.55;103188.28;4829755;29;20552;-84
2022/12/04 05:32:26;;;;;;;12.90;4.83;;;;;;;-8.90;60.83;103246.47;4828608;29;20045;-84
2022/12/04 05:34:53;;;;;;;12.50;4.73;;;;;;;-9.86;59.97;103072.38;4815731;29;20071;-83
2022/12/04 05:37:20;;;;;;;12.70;5.20;;;;;;;-9.10;60.45;103223.06;4815488;29;20428;-83
2022/12/04 05:39:47;;;;;;;12.97;4.80;;;;;;;-9.98;60.49;103101.09;4815198;29;20126;-83
2022/12/04 05:42:13;;;;;;;17.43;5.00;;;;;;;-9.69;59.38;103182.94;4814680;29;20052;-81
2022/12/04 05:44:52;;;;;;;12.53;5.27;;;;;;;-10.17;61.26;103060.06;4833149;29;20045;-81
2022/12/04 05:47:18;;;;;;;14.47;5.57;;;;;;;-9.53;61.63;103063.81;4828620;29;20089;-81
2022/12/04 05:49:44;;;;;;;13.00;5.07;;;;;;;-9.09;60.89;103030.53;4842589;29;20041;-80
2022/12/04 05:52:10;;;;;;;13.50;4.75;;;;;;;-8.39;60.63;103076.75;4841191;29;20048;-84
2022/12/04 05:54:37;;;;;;;11.68;4.63;;;;;;;-7.17;60.12;103233.50;4855296;29;20046;-83
2022/12/04 05:57:03;;;;;;;12.93;4.63;;;;;;;-6.91;58.37;103228.03;4817955;29;20142;-84
2022/12/04 05:59:29;;;;;;;13.18;4.95;;;;;;;-7.65;59.20;103030.53;4816683;29;20053;-83
2022/12/04 06:02:47;;;;;;;20.98;5.30;;;;;;;-6.94;59.99;103002.28;4832187;29;20405;-85
2022/12/04 06:05:22;;;;;;;11.45;4.50;;;;;;;-5.64;59.40;103063.09;4780465;29;20077;-82
2022/12/04 06:07:52;;;;;;;11.85;5.07;;;;;;;-4.60;58.82;103149.44;4795686;29;20055;-83
2022/12/04 06:10:45;;;;;;;14.50;4.70;;;;;;;-3.50;57.99;103140.44;4812463;29;20049;-81
2022/12/04 06:13:14;;;;;;;11.70;4.60;;;;;;;-3.59;58.03;102994.34;4819683;29;20160;-82
2022/12/04 06:15:43;;;;;;;16.90;5.40;;;;;;;-2.52;57.24;103153.50;4852507;29;20987;-81
2022/12/04 06:18:12;;;;;;;12.25;5.35;;;;;;;-1.54;55.93;103202.03;4817766;29;20049;-81
2022/12/04 06:20:47;;;;;;;15.68;6.40;;;;;;;-1.82;55.24;103181.53;4834912;29;20053;-82
2022/12/04 06:23:14;;;;;;;13.40;5.70;;;;;;;-1.29;55.14;103200.88;4783754;29;20428;-84
2022/12/04 06:25:49;;;;;;;10.77;5.40;;;;;;;-1.27;54.58;103225.84;4814148;29;20058;-81
2022/12/04 06:28:20;;;;;;;15.80;7.80;;;;;;;-0.81;54.18;103211.34;4814065;29;20042;-80
2022/12/04 06:30:47;;;;;;;15.45;6.10;;;;;;;-0.45;53.80;103165.94;4813820;29;20046;-83
2022/12/04 06:33:13;;;;;;;13.65;7.65;;;;;;;-0.46;52.88;103107.84;4817940;29;20046;-83
2022/12/04 06:35:42;;;;;;;11.52;6.07;;;;;;;0.10;51.40;103210.94;4820178;29;20050;-83
2022/12/04 06:38:15;;;;;;;11.57;5.75;;;;;;;-0.46;51.14;103128.31;4828312;29;20049;-85
2022/12/04 06:40:42;;;;;;;10.55;5.47;;;;;;;-0.99;51.46;103008.53;4829191;29;20054;-82
2022/12/04 06:43:08;;;;;;;12.05;5.70;;;;;;;-0.23;51.91;103029.63;4828460;29;20086;-82
2022/12/04 06:45:34;;;;;;;13.60;5.25;;;;;;;1.29;50.34;103206.47;4813366;29;20137;-83
2022/12/04 06:48:00;;;;;;;12.15;5.28;;;;;;;1.41;49.44;103098.78;4832340;29;20057;-81
2022/12/04 06:50:26;;;;;;;9.75;4.82;;;;;;;2.15;46.95;103228.03;4806721;29;20045;-83
2022/12/04 06:52:56;;;;;;;14.25;5.70;;;;;;;1.01;47.80;102922.91;4785558;29;20070;-85
2022/12/04 06:55:22;;;;;;;10.02;5.47;;;;;;;2.11;46.97;103052.13;4811273;29;20600;-81
2022/12/04 06:57:48;;;;;;;11.30;5.53;;;;;;;2.96;44.16;103101.44;4813970;29;20048;-84
2022/12/04 07:00:15;;;;;;;13.48;5.68;;;;;;;2.70;45.00;103153.44;4799813;29;20033;-85
2022/12/04 07:02:42;;;;;;;13.40;6.22;;;;;;;2.80;44.00;103175.63;4799561;29;20500;-83
2022/12/04 07:05:11;;;;;;;10.50;5.15;;;;;;;2.93;43.62;103208.34;4847352;29;20068;-82
2022/12/04 07:10:56;;;;;;;11.23;5.13;;;;;;;1.12;43.28;102928.91;4810672;29;20053;-85
2022/12/04 07:14:31;;;;;;;;;;;;;;;1.43;41.55;103216.22;4728922;30;20088;-83
2022/12/04 07:17:03;;;;;;;10.75;4.80;;;;;;;-1.27;42.92;103046.03;4723002;30;20029;-81
2022/12/04 07:19:29;;;;;;;11.23;5.50;;;;;;;-2.18;43.42;102985.84;4768684;30;20055;-85
2022/12/04 07:21:56;;;;;;;12.25;5.75;;;;;;;-1.86;42.75;103136.03;4775336;30;20093;-83
2022/12/04 07:24:22;;;;;;;10.00;5.22;;;;;;;-2.12;43.05;103182.94;4790430;30;20055;-82
2022/12/04 07:26:52;;;;;;;10.77;5.25;;;;;;;-2.36;43.18;103232.47;4790919;30;20051;-82
2022/12/04 07:29:18;;;;;;;14.25;5.78;;;;;;;-3.30;44.14;103093.16;4792243;29;20102;-82
2022/12/04 07:31:44;;;;;;;10.48;5.47;;;;;;;-3.83;44.62;102946.25;4776969;30;20047;-81
2022/12/04 07:34:14;;;;;;;10.30;5.38;;;;;;;-2.50;43.72;103230.22;4776922;30;20051;-80
2022/12/04 07:36:43;;;;;;;12.77;5.88;;;;;;;-2.46;45.31;103200.03;4778682;30;20058;-80
2022/12/04 07:39:09;;;;;;;11.00;4.80;;;;;;;-2.61;43.33;103178.13;4814114;29;20050;-83
2022/12/04 07:41:49;;;;;;;10.13;5.80;;;;;;;-2.97;44.06;103094.69;4815471;29;20083;-80
2022/12/04 07:44:17;;;;;;;9.75;5.00;;;;;;;-1.75;43.92;103251.97;4812791;29;20151;-81
2022/12/04 07:46:44;;;;;;;13.73;5.10;;;;;;;-1.58;43.76;103247.59;4813600;29;20098;-82
2022/12/04 07:49:16;;;;;;;9.18;5.25;;;;;;;-1.87;42.32;103215.03;4813501;29;20568;-84
2022/12/04 07:51:43;;;;;;;10.98;5.43;;;;;;;-2.14;43.83;103193.72;4781964;29;20064;-81
2022/12/04 07:54:11;;;;;;;11.25;5.55;;;;;;;-2.63;43.66;103069.97;4814009;29;20150;-82
2022/12/04 07:56:37;;;;;;;10.57;5.38;;;;;;;-0.13;44.10;103252.44;4794993;29;20042;-81
2022/12/04 07:59:03;;;;;;;9.63;5.13;;;;;;;1.20;43.57;103255.34;4779955;29;20063;-83
2022/12/04 08:01:35;;;;;;;9.80;5.88;;;;;;;2.67;42.74;103200.41;4795373;29;20420;-79
2022/12/04 08:04:02;;;;;;;10.83;5.70;;;;;;;4.18;41.70;103152.28;4800479;29;20031;-80
2022/12/04 08:06:35;;;;;;;10.48;4.90;;;;;;;5.19;39.43;103144.53;4803915;29;20307;-80
2022/12/04 08:09:04;;;;;;;12.50;5.57;;;;;;;5.31;37.44;103077.31;4822861;29;20066;-80
2022/12/04 08:11:34;;;;;;;11.32;4.88;;;;;;;6.36;36.44;103216.63;4809925;29;20081;-81
2022/12/04 08:14:05;;;;;;;11.73;4.70;;;;;;;6.66;34.82;103186.59;4823761;29;20082;-84
2022/12/04 08:16:45;;;;;;;8.57;4.68;;;;;;;6.00;35.98;102998.13;4822838;29;20095;-82
2022/12/04 08:22:33;;;;;;;12.40;5.70;;;;;;;5.61;35.42;102970.66;4788535;30;20059;-82
2022/12/04 08:25:09;;;;;;;9.75;5.40;;;;;;;7.14;33.72;103132.50;4787988;30;20068;-84
2022/12/04 08:27:36;;;;;;;9.80;5.28;;;;;;;6.82;33.14;103117.66;4784375;30;20047;-81
2022/12/04 08:30:03;;;;;;;14.43;7.45;;;;;;;8.00;33.53;103177.09;4771442;30;20074;-82
2022/12/04 08:32:39;;;;;;;12.10;6.45;;;;;;;8.03;32.51;103207.47;4772208;30;20686;-82
2022/12/04 08:38:18;;;;;;;12.57;6.22;;;;;;;7.52;33.50;103027.56;4998368;24;19920;-82
2022/12/04 08:41:03;;;;;;;12.68;5.53;;;;;;;8.79;31.72;103199.53;4904711;24;20125;-80
2022/12/04 08:43:36;;;;;;;11.27;5.13;;;;;;;8.06;31.05;102982.88;4845547;29;20121;-83
2022/12/04 08:46:14;;;;;;;9.68;5.60;;;;;;;8.87;30.29;103124.63;4848316;29;20066;-79
2022/12/04 08:49:29;;;;;;;8.77;5.07;;;;;;;9.71;30.81;103205.00;4833728;29;20083;-80
2022/12/04 08:52:46;;;;;;;8.63;4.78;;;;;;;9.13;30.42;103185.69;4547838;27;20127;-82
2022/12/04 08:55:53;;;;;;;8.73;5.32;;;;;;;7.99;29.78;103024.88;5009871;24;20530;-79
2022/12/04 08:58:41;;;;;;;8.52;4.78;;;;;;;8.76;29.54;103066.03;4834462;29;20075;-81
2022/12/04 09:01:26;;;;;;;8.73;4.80;;;;;;;9.12;28.93;103054.00;4835610;29;20059;-81
2022/12/04 09:04:25;;;;;;;8.45;4.93;;;;;;;9.41;28.19;103110.78;4835450;29;20077;-80
2022/12/04 09:07:23;;;;;;;8.88;4.85;;;;;;;8.95;26.62;103026.28;4888562;24;20042;-80
2022/12/04 09:09:51;;;;;;;10.25;4.93;;;;;;;9.12;28.15;103167.44;4837265;29;20058;-82
2022/12/04 09:12:38;;;;;;;8.45;5.20;;;;;;;8.21;26.95;103085.69;4793849;29;20074;-84
2022/12/04 09:15:11;;;;;;;11.50;5.90;;;;;;;7.62;28.04;102914.91;4823187;29;20057;-82
2022/12/04 09:17:44;;;;;;;8.80;5.10;;;;;;;8.72;27.99;103044.22;4788393;29;20035;-84
2022/12/04 09:20:19;;;;;;;8.27;4.80;;;;;;;9.04;27.70;103144.53;4795905;29;20103;-82
2022/12/04 09:22:50;;;;;;;8.50;4.82;;;;;;;8.98;27.37;103120.84;4806401;29;20046;-80
2022/12/04 09:25:31;;;;;;;8.57;4.88;;;;;;;7.55;27.17;102962.03;4810317;29;20073;-82
2022/12/04 09:28:09;;;;;;;9.13;5.20;;;;;;;7.18;27.03;102970.38;4803298;29;20047;-82
2022/12/04 09:31:04;;;;;;;10.43;5.28;;;;;;;6.85;27.11;103066.03;4827709;29;20031;-84
2022/12/04 09:33:32;;;;;;;7.38;4.45;;;;;;;6.85;28.06;103108.38;4834556;29;20022;-83
2022/12/04 10:08:05;;;;;;;9.82;4.65;;;;;;;1.93;31.32;103212.53;4807669;29;20095;-81
2022/12/04 10:11:27;;;;;;;6.30;3.47;;;;;;;0.21;31.30;103141.81;4716064;30;20041;-82
2022/12/04 10:14:46;;;;;;;8.82;4.70;;;;;;;0.06;32.75;103219.09;4807359;29;20058;-82
2022/12/04 10:17:33;;;;;;;9.18;4.65;;;;;;;-0.36;33.29;103220.53;5583632;24;21413;-79
2022/12/04 10:20:10;;;;;;;10.68;4.22;;;;;;;-0.85;33.04;103223.72;4792784;29;20078;-83
2022/12/04 10:51:37;;;;;;;9.82;4.28;;;;;;;-5.15;38.28;102899.00;4935466;24;20051;-82
2022/12/04 10:54:16;;;;;;;10.30;3.97;;;;;;;-3.63;37.85;103215.53;4784220;30;20059;-83
2022/12/04 10:57:03;;;;;;;6.72;4.07;;;;;;;-3.86;39.54;103189.38;4770958;30;20067;-84
2022/12/04 10:59:55;;;;;;;7.25;3.92;;;;;;;-4.89;39.52;103023.66;4799270;29;20090;-83
2022/12/04 11:02:25;;;;;;;9.18;4.05;;;;;;;-3.95;39.51;103215.66;4767673;30;20058;-83
2022/12/04 11:05:05;;;;;;;6.82;3.50;;;;;;;-4.74;40.14;103090.44;4798927;30;20051;-84
2022/12/04 11:07:46;;;;;;;7.55;3.65;;;;;;;-4.72;40.58;103090.59;4788759;29;20027;-84
2022/12/04 11:10:31;;;;;;;9.33;3.93;;;;;;;-4.01;41.06;103214.13;4779821;29;20047;-82
2022/12/04 11:13:22;;;;;;;9.43;3.88;;;;;;;-5.26;40.42;103059.47;4771532;30;20636;-85
2022/12/04 11:15:53;;;;;;;8.88;3.25;;;;;;;-6.17;41.00;102890.78;4755237;30;20055;-84
2022/12/04 11:18:45;;;;;;;5.50;3.20;;;;;;;-6.52;41.01;102815.28;4768809;30;20076;-84
2022/12/04 11:21:16;;;;;;;6.38;3.50;;;;;;;-4.48;41.02;103213.41;4800161;29;20042;-81
2022/12/04 11:24:33;;;;;;;9.48;4.55;;;;;;;-4.49;41.78;103215.06;4804915;29;20076;-81
2022/12/04 11:28:00;;;;;;;19.60;7.28;;;;;;;-5.26;41.64;103095.94;4806983;29;20047;-83
2022/12/04 11:30:37;;;;;;;11.55;5.20;;;;;;;-6.79;41.92;102912.84;4817317;29;20047;-83
2022/12/04 11:33:15;;;;;;;13.30;5.35;;;;;;;-5.18;42.64;103168.75;4788341;29;20022;-85
2022/12/04 11:35:51;;;;;;;19.42;7.90;;;;;;;-6.78;43.09;102869.06;4819855;29;20113;-82
2022/12/04 11:38:45;;;;;;;18.33;8.02;;;;;;;-5.96;42.79;102992.00;4815108;29;20058;-83
2022/12/04 11:41:32;;;;;;;14.70;6.63;;;;;;;-6.79;43.04;102862.19;4770854;30;21158;-86
2022/12/04 11:47:33;;;;;;;8.38;4.13;;;;;;;-4.80;43.62;103199.06;4777366;29;20059;-81
2022/12/04 11:50:42;;;;;;;7.78;3.30;;;;;;;-5.41;42.33;103125.63;4780066;29;20055;-85
2022/12/04 11:53:53;;;;;;;9.27;3.85;;;;;;;-4.97;43.34;103194.72;4792196;29;20034;-85
2022/12/04 11:57:04;;;;;;;8.80;3.33;;;;;;;-5.06;43.71;103197.13;4787356;30;20031;-85
2022/12/04 12:04:37;;;;;;;5.47;3.15;;;;;;;-5.00;44.21;103196.91;4749159;30;20069;-84
2022/12/04 12:11:20;;;;;;;8.23;3.53;;;;;;;-4.98;44.50;103198.00;4089323;27;20071;-86
2022/12/04 12:30:26;;;;;;;10.00;3.83;;;;;;;-5.98;45.87;103200.53;4441545;24;20078;-87
2022/12/04 12:33:28;;;;;;;7.00;3.97;;;;;;;-5.90;45.94;103193.06;4784392;29;20133;-87
2022/12/04 12:36:41;;;;;;;8.18;4.45;;;;;;;-5.88;45.39;103188.19;4789837;29;20034;-86
2022/12/04 12:43:42;;;;;;;11.60;4.13;;;;;;;-7.20;46.79;102978.34;5254440;24;20047;-88
2022/12/04 12:46:39;;;;;;;8.75;4.03;;;;;;;-7.85;46.52;102868.91;4770073;30;20094;-87
2022/12/04 12:50:25;;;;;;;12.57;4.75;;;;;;;-6.33;46.62;103212.72;4728929;30;20060;-87
2022/12/04 13:00:28;;;;;;;9.18;4.32;;;;;;;-7.35;47.53;103077.84;4853598;24;20463;-83
2022/12/04 13:13:13;;;;;;;12.20;4.40;;;;;;;-7.14;48.07;103158.81;4801857;29;20145;-85
2022/12/04 13:16:29;;;;;;;8.45;4.47;;;;;;;-6.80;48.33;103230.22;4807283;30;20039;-85
2022/12/04 13:19:42;;;;;;;9.07;4.00;;;;;;;-6.75;48.60;103208.84;4791576;30;20051;-85
2022/12/04 13:22:50;;;;;;;9.10;3.75;;;;;;;-8.79;48.33;102896.13;4807973;30;20077;-83
2022/12/04 13:25:50;;;;;;;7.55;4.05;;;;;;;-6.98;48.28;103208.69;4793063;30;20023;-84
2022/12/04 13:28:49;;;;;;;7.53;3.67;;;;;;;-7.08;48.22;103205.84;4763899;30;20069;-85
2022/12/04 13:31:44;;;;;;;7.60;3.30;;;;;;;-7.34;48.35;103204.56;4790219;30;20127;-83
2022/12/04 13:35:14;;;;;;;11.25;4.40;;;;;;;-7.27;49.93;103216.31;4748052;30;20055;-83
2022/12/04 13:38:20;;;;;;;13.98;5.25;;;;;;;-7.22;48.89;103212.69;4794400;29;20051;-86
2022/12/04 13:41:05;;;;;;;10.52;4.22;;;;;;;-8.03;49.53;103118.84;4828279;29;20058;-83
2022/12/04 13:44:10;;;;;;;8.43;4.67;;;;;;;-8.16;49.83;103086.16;4812018;29;20050;-85
2022/12/04 13:46:57;;;;;;;9.15;4.10;;;;;;;-7.91;49.97;103132.06;4827187;29;20148;-85
2022/12/04 13:56:00;;;;;;;12.73;4.53;;;;;;;-9.13;49.76;102970.31;4800321;24;20047;-82
2022/12/04 13:58:36;;;;;;;6.85;4.22;;;;;;;-9.61;49.99;102870.34;4917573;24;20059;-84
2022/12/04 14:03:58;;;;;;;11.75;5.53;;;;;;;-8.06;50.61;103146.31;4840948;24;20058;-84
2022/12/04 14:06:42;;;;;;;9.83;4.17;;;;;;;-8.20;51.20;103150.59;4782374;29;20092;-85
2022/12/04 14:09:26;;;;;;;11.73;4.00;;;;;;;-9.18;50.72;102951.22;4797416;29;20126;-82
2022/12/04 14:12:04;;;;;;;8.40;3.78;;;;;;;-8.34;50.88;103083.25;4793209;30;20035;-82
2022/12/04 14:15:25;;;;;;;15.27;6.15;;;;;;;-7.63;50.86;103208.69;4809619;30;20076;-85
2022/12/04 14:18:12;;;;;;;7.80;3.53;;;;;;;-8.06;50.81;103133.69;4799009;29;20112;-84
2022/12/04 14:20:57;;;;;;;9.80;4.27;;;;;;;-9.80;51.16;102820.16;4807453;29;20058;-83
2022/12/04 14:23:41;;;;;;;12.38;5.57;;;;;;;-7.64;50.30;103207.81;4792741;30;20055;-84
2022/12/04 14:26:27;;;;;;;8.98;4.28;;;;;;;-8.99;51.16;102978.66;4777518;30;20038;-83
2022/12/04 14:29:27;;;;;;;8.88;3.72;;;;;;;-7.81;51.03;103220.03;4762996;30;20051;-82